sensor_id;sensor_type;location;lat;lon;timestamp;temperature;humidity
70928;SHT31;58587;53.034;18.576;2022-08-30T08:10:13;19.46;72.75
70928;SHT31;58587;53.034;18.576;2022-08-30T08:12:40;19.48;72.22
70928;SHT31;58587;53.034;18.576;2022-08-30T08:15:06;19.51;71.78
70928;SHT31;58587;53.034;18.576;2022-08-30T08:17:32;19.42;71.82
70928;SHT31;58587;53.034;18.576;2022-08-30T08:19:57;19.46;71.84
70928;SHT31;58587;53.034;18.576;2022-08-30T08:22:22;19.43;71.24
70928;SHT31;58587;53.034;18.576;2022-08-30T08:24:48;19.52;72.17
70928;SHT31;58587;53.034;18.576;2022-08-30T08:27:14;19.61;72.37
70928;SHT31;58587;53.034;18.576;2022-08-30T08:29:40;19.59;71.87
70928;SHT31;58587;53.034;18.576;2022-08-30T08:32:06;19.65;71.62
70928;SHT31;58587;53.034;18.576;2022-08-30T08:34:31;19.76;71.86
70928;SHT31;58587;53.034;18.576;2022-08-30T08:36:57;19.67;70.03
70928;SHT31;58587;53.034;18.576;2022-08-30T08:39:22;19.79;70.63
70928;SHT31;58587;53.034;18.576;2022-08-30T08:47:17;20.12;69.65
70928;SHT31;58587;53.034;18.576;2022-08-30T08:49:50;20.04;68.31
70928;SHT31;58587;53.034;18.576;2022-08-30T08:52:28;20.17;68.55
70928;SHT31;58587;53.034;18.576;2022-08-30T08:55:15;20.36;67.60
70928;SHT31;58587;53.034;18.576;2022-08-30T08:57:43;20.55;68.72
70928;SHT31;58587;53.034;18.576;2022-08-30T09:00:11;20.68;67.10
70928;SHT31;58587;53.034;18.576;2022-08-30T09:02:40;20.71;66.93
70928;SHT31;58587;53.034;18.576;2022-08-30T09:05:08;20.63;66.25
70928;SHT31;58587;53.034;18.576;2022-08-30T09:07:39;20.69;66.53
70928;SHT31;58587;53.034;18.576;2022-08-30T09:10:05;20.68;66.40
70928;SHT31;58587;53.034;18.576;2022-08-30T09:12:31;20.71;66.79
70928;SHT31;58587;53.034;18.576;2022-08-30T09:15:19;20.84;66.24
70928;SHT31;58587;53.034;18.576;2022-08-30T09:17:56;20.81;65.27
70928;SHT31;58587;53.034;18.576;2022-08-30T09:20:34;20.85;65.08
70928;SHT31;58587;53.034;18.576;2022-08-30T09:23:19;20.84;62.77
70928;SHT31;58587;53.034;18.576;2022-08-30T09:28:28;20.88;62.42
70928;SHT31;58587;53.034;18.576;2022-08-30T09:31:04;20.92;62.70
70928;SHT31;58587;53.034;18.576;2022-08-30T09:33:30;20.91;63.23
70928;SHT31;58587;53.034;18.576;2022-08-30T09:35:58;20.96;62.93
70928;SHT31;58587;53.034;18.576;2022-08-30T09:38:33;21.06;64.40
70928;SHT31;58587;53.034;18.576;2022-08-30T09:41:01;21.13;63.37
70928;SHT31;58587;53.034;18.576;2022-08-30T09:44:18;21.35;64.00
70928;SHT31;58587;53.034;18.576;2022-08-30T09:46:55;21.43;59.81
70928;SHT31;58587;53.034;18.576;2022-08-30T09:49:38;21.60;60.91
70928;SHT31;58587;53.034;18.576;2022-08-30T09:52:34;21.73;60.83
70928;SHT31;58587;53.034;18.576;2022-08-30T10:00:18;21.62;57.37
70928;SHT31;58587;53.034;18.576;2022-08-30T10:06:00;21.57;57.98
70928;SHT31;58587;53.034;18.576;2022-08-30T10:11:06;21.69;57.63
70928;SHT31;58587;53.034;18.576;2022-08-30T10:16:42;21.89;56.26
70928;SHT31;58587;53.034;18.576;2022-08-30T10:22:29;22.11;57.33
70928;SHT31;58587;53.034;18.576;2022-08-30T10:25:04;22.18;57.04
70928;SHT31;58587;53.034;18.576;2022-08-30T10:27:37;22.25;56.17
70928;SHT31;58587;53.034;18.576;2022-08-30T10:30:09;22.17;54.71
70928;SHT31;58587;53.034;18.576;2022-08-30T10:32:43;22.17;56.26
70928;SHT31;58587;53.034;18.576;2022-08-30T10:35:22;22.05;56.95
70928;SHT31;58587;53.034;18.576;2022-08-30T10:37:57;22.05;57.52
70928;SHT31;58587;53.034;18.576;2022-08-30T10:40:29;21.98;55.51
70928;SHT31;58587;53.034;18.576;2022-08-30T10:43:39;22.00;54.65
70928;SHT31;58587;53.034;18.576;2022-08-30T10:46:15;22.03;54.71
70928;SHT31;58587;53.034;18.576;2022-08-30T10:48:43;22.00;55.34
70928;SHT31;58587;53.034;18.576;2022-08-30T10:51:17;22.04;55.51
70928;SHT31;58587;53.034;18.576;2022-08-30T10:53:51;22.11;54.95
70928;SHT31;58587;53.034;18.576;2022-08-30T10:56:20;22.18;54.96
70928;SHT31;58587;53.034;18.576;2022-08-30T10:58:46;22.25;54.53
70928;SHT31;58587;53.034;18.576;2022-08-30T11:01:19;22.27;54.71
70928;SHT31;58587;53.034;18.576;2022-08-30T11:06:45;22.37;55.14
70928;SHT31;58587;53.034;18.576;2022-08-30T11:09:39;22.35;54.38
70928;SHT31;58587;53.034;18.576;2022-08-30T11:12:30;22.37;54.39
70928;SHT31;58587;53.034;18.576;2022-08-30T11:14:57;22.30;53.04
70928;SHT31;58587;53.034;18.576;2022-08-30T11:17:43;22.30;53.66
70928;SHT31;58587;53.034;18.576;2022-08-30T11:20:30;22.21;52.73
70928;SHT31;58587;53.034;18.576;2022-08-30T11:23:35;22.28;53.25
70928;SHT31;58587;53.034;18.576;2022-08-30T11:28:58;22.37;53.37
70928;SHT31;58587;53.034;18.576;2022-08-30T11:31:42;22.54;54.57
70928;SHT31;58587;53.034;18.576;2022-08-30T11:34:08;22.65;54.03
70928;SHT31;58587;53.034;18.576;2022-08-30T11:46:49;22.69;53.94
70928;SHT31;58587;53.034;18.576;2022-08-30T11:57:31;22.73;54.48
70928;SHT31;58587;53.034;18.576;2022-08-30T12:02:58;23.09;51.45
70928;SHT31;58587;53.034;18.576;2022-08-30T12:08:09;23.36;50.39
70928;SHT31;58587;53.034;18.576;2022-08-30T12:10:41;23.29;50.64
70928;SHT31;58587;53.034;18.576;2022-08-30T12:13:08;23.27;50.96
70928;SHT31;58587;53.034;18.576;2022-08-30T12:15:53;23.43;49.69
70928;SHT31;58587;53.034;18.576;2022-08-30T12:18:24;23.56;48.89
70928;SHT31;58587;53.034;18.576;2022-08-30T12:20:55;23.66;48.33
70928;SHT31;58587;53.034;18.576;2022-08-30T12:26:33;24.05;47.94
70928;SHT31;58587;53.034;18.576;2022-08-30T12:29:10;24.28;47.20
70928;SHT31;58587;53.034;18.576;2022-08-30T12:34:26;24.43;47.45
70928;SHT31;58587;53.034;18.576;2022-08-30T12:36:55;24.20;45.19
70928;SHT31;58587;53.034;18.576;2022-08-30T12:39:42;24.22;48.23
70928;SHT31;58587;53.034;18.576;2022-08-30T12:42:18;24.25;48.64
70928;SHT31;58587;53.034;18.576;2022-08-30T12:44:45;24.38;50.10
70928;SHT31;58587;53.034;18.576;2022-08-30T12:47:13;24.61;48.02
70928;SHT31;58587;53.034;18.576;2022-08-30T12:49:42;24.49;47.27
70928;SHT31;58587;53.034;18.576;2022-08-30T12:52:21;24.14;45.81
70928;SHT31;58587;53.034;18.576;2022-08-30T12:54:50;24.05;47.63
70928;SHT31;58587;53.034;18.576;2022-08-30T12:57:41;23.88;47.35
70928;SHT31;58587;53.034;18.576;2022-08-30T13:00:30;23.87;47.64
70928;SHT31;58587;53.034;18.576;2022-08-30T13:03:24;23.88;49.08
70928;SHT31;58587;53.034;18.576;2022-08-30T13:05:44;23.98;49.76
70928;SHT31;58587;53.034;18.576;2022-08-30T13:13:32;24.38;46.52
70928;SHT31;58587;53.034;18.576;2022-08-30T13:18:46;24.20;46.22
70928;SHT31;58587;53.034;18.576;2022-08-30T13:23:47;24.29;47.79
70928;SHT31;58587;53.034;18.576;2022-08-30T13:26:12;24.29;46.03
70928;SHT31;58587;53.034;18.576;2022-08-30T13:28:44;24.35;46.48
70928;SHT31;58587;53.034;18.576;2022-08-30T13:31:09;24.29;47.61
70928;SHT31;58587;53.034;18.576;2022-08-30T13:33:34;24.24;46.68
70928;SHT31;58587;53.034;18.576;2022-08-30T13:36:00;24.25;47.12
70928;SHT31;58587;53.034;18.576;2022-08-30T13:38:26;24.25;47.06
70928;SHT31;58587;53.034;18.576;2022-08-30T13:40:51;23.98;46.80
70928;SHT31;58587;53.034;18.576;2022-08-30T13:43:16;23.81;46.80
70928;SHT31;58587;53.034;18.576;2022-08-30T13:45:42;24.01;47.99
70928;SHT31;58587;53.034;18.576;2022-08-30T13:48:07;23.90;48.70
70928;SHT31;58587;53.034;18.576;2022-08-30T13:50:35;23.90;48.05
70928;SHT31;58587;53.034;18.576;2022-08-30T13:53:00;23.82;47.35
70928;SHT31;58587;53.034;18.576;2022-08-30T13:55:26;23.70;48.48
70928;SHT31;58587;53.034;18.576;2022-08-30T13:57:51;23.69;49.56
70928;SHT31;58587;53.034;18.576;2022-08-30T14:00:18;23.54;48.44
70928;SHT31;58587;53.034;18.576;2022-08-30T14:02:47;23.54;49.38
70928;SHT31;58587;53.034;18.576;2022-08-30T14:05:13;23.53;48.95
70928;SHT31;58587;53.034;18.576;2022-08-30T14:07:39;23.56;50.78
70928;SHT31;58587;53.034;18.576;2022-08-30T14:10:05;23.45;49.71
70928;SHT31;58587;53.034;18.576;2022-08-30T14:12:30;23.46;51.33
70928;SHT31;58587;53.034;18.576;2022-08-30T14:14:56;23.42;51.16
70928;SHT31;58587;53.034;18.576;2022-08-30T14:17:21;23.30;49.81
70928;SHT31;58587;53.034;18.576;2022-08-30T14:19:53;23.17;49.55
70928;SHT31;58587;53.034;18.576;2022-08-30T14:22:18;23.09;50.76
70928;SHT31;58587;53.034;18.576;2022-08-30T14:24:44;23.06;50.42
70928;SHT31;58587;53.034;18.576;2022-08-30T14:27:10;22.98;50.43
70928;SHT31;58587;53.034;18.576;2022-08-30T14:29:35;22.84;50.31
70928;SHT31;58587;53.034;18.576;2022-08-30T14:32:01;22.81;51.62
70928;SHT31;58587;53.034;18.576;2022-08-30T14:34:26;22.71;52.79
70928;SHT31;58587;53.034;18.576;2022-08-30T14:36:52;22.66;53.67
70928;SHT31;58587;53.034;18.576;2022-08-30T14:39:19;22.65;56.43
70928;SHT31;58587;53.034;18.576;2022-08-30T14:41:48;22.64;55.28
70928;SHT31;58587;53.034;18.576;2022-08-30T14:44:16;22.52;54.70
70928;SHT31;58587;53.034;18.576;2022-08-30T14:46:42;22.52;54.87
70928;SHT31;58587;53.034;18.576;2022-08-30T14:49:08;22.44;55.36
70928;SHT31;58587;53.034;18.576;2022-08-30T14:51:33;22.38;56.93
70928;SHT31;58587;53.034;18.576;2022-08-30T14:53:58;22.33;57.49
70928;SHT31;58587;53.034;18.576;2022-08-30T14:56:24;22.35;57.56
70928;SHT31;58587;53.034;18.576;2022-08-30T14:58:51;22.30;58.70
70928;SHT31;58587;53.034;18.576;2022-08-30T15:01:18;22.30;58.43
70928;SHT31;58587;53.034;18.576;2022-08-30T15:03:43;22.20;60.53
70928;SHT31;58587;53.034;18.576;2022-08-30T15:06:09;22.18;59.60
70928;SHT31;58587;53.034;18.576;2022-08-30T15:08:36;22.20;58.87
70928;SHT31;58587;53.034;18.576;2022-08-30T15:11:13;22.15;58.80
70928;SHT31;58587;53.034;18.576;2022-08-30T15:13:39;22.15;60.15
70928;SHT31;58587;53.034;18.576;2022-08-30T15:16:11;22.07;60.61
70928;SHT31;58587;53.034;18.576;2022-08-30T15:18:37;21.97;59.85
70928;SHT31;58587;53.034;18.576;2022-08-30T15:21:03;21.98;59.84
70928;SHT31;58587;53.034;18.576;2022-08-30T15:23:28;21.86;61.56
70928;SHT31;58587;53.034;18.576;2022-08-30T15:25:53;21.83;61.07
70928;SHT31;58587;53.034;18.576;2022-08-30T15:28:19;21.74;61.29
70928;SHT31;58587;53.034;18.576;2022-08-30T15:30:44;21.76;61.79
70928;SHT31;58587;53.034;18.576;2022-08-30T15:33:10;21.70;63.20
70928;SHT31;58587;53.034;18.576;2022-08-30T15:35:35;21.67;61.45
70928;SHT31;58587;53.034;18.576;2022-08-30T15:38:00;21.62;61.95
70928;SHT31;58587;53.034;18.576;2022-08-30T15:40:26;21.60;61.76
70928;SHT31;58587;53.034;18.576;2022-08-30T15:42:52;21.54;61.84
70928;SHT31;58587;53.034;18.576;2022-08-30T15:45:18;21.49;62.53
70928;SHT31;58587;53.034;18.576;2022-08-30T15:47:43;21.46;61.98
70928;SHT31;58587;53.034;18.576;2022-08-30T15:50:09;21.52;61.65
70928;SHT31;58587;53.034;18.576;2022-08-30T15:52:34;21.50;61.51
70928;SHT31;58587;53.034;18.576;2022-08-30T15:55:00;21.49;61.19
70928;SHT31;58587;53.034;18.576;2022-08-30T15:57:25;21.45;61.66
70928;SHT31;58587;53.034;18.576;2022-08-30T15:59:50;21.38;61.22
70928;SHT31;58587;53.034;18.576;2022-08-30T16:02:18;21.29;61.63
70928;SHT31;58587;53.034;18.576;2022-08-30T16:04:43;21.30;63.15
70928;SHT31;58587;53.034;18.576;2022-08-30T16:07:09;21.23;63.16
70928;SHT31;58587;53.034;18.576;2022-08-30T16:09:35;21.16;63.14
70928;SHT31;58587;53.034;18.576;2022-08-30T16:12:02;21.19;63.39
70928;SHT31;58587;53.034;18.576;2022-08-30T16:14:28;21.15;63.99
70928;SHT31;58587;53.034;18.576;2022-08-30T16:16:54;21.09;63.83
70928;SHT31;58587;53.034;18.576;2022-08-30T16:19:20;21.05;63.81
70928;SHT31;58587;53.034;18.576;2022-08-30T16:21:45;20.94;65.01
70928;SHT31;58587;53.034;18.576;2022-08-30T16:24:12;20.94;64.99
70928;SHT31;58587;53.034;18.576;2022-08-30T16:26:38;20.88;65.21
70928;SHT31;58587;53.034;18.576;2022-08-30T16:29:05;20.88;65.57
70928;SHT31;58587;53.034;18.576;2022-08-30T16:31:32;20.87;64.80
70928;SHT31;58587;53.034;18.576;2022-08-30T16:33:58;20.82;64.97
70928;SHT31;58587;53.034;18.576;2022-08-30T16:36:24;20.87;65.11
70928;SHT31;58587;53.034;18.576;2022-08-30T16:38:53;20.82;64.82
70928;SHT31;58587;53.034;18.576;2022-08-30T16:41:20;20.74;66.36
70928;SHT31;58587;53.034;18.576;2022-08-30T16:43:46;20.71;65.25
70928;SHT31;58587;53.034;18.576;2022-08-30T16:46:14;20.68;65.33
70928;SHT31;58587;53.034;18.576;2022-08-30T16:48:41;20.61;65.22
70928;SHT31;58587;53.034;18.576;2022-08-30T16:51:10;20.61;64.39
70928;SHT31;58587;53.034;18.576;2022-08-30T16:53:36;20.52;65.13
70928;SHT31;58587;53.034;18.576;2022-08-30T16:56:19;20.51;65.23
70928;SHT31;58587;53.034;18.576;2022-08-30T16:58:45;20.43;65.34
70928;SHT31;58587;53.034;18.576;2022-08-30T17:01:11;20.33;65.86
70928;SHT31;58587;53.034;18.576;2022-08-30T17:03:38;20.24;66.25
70928;SHT31;58587;53.034;18.576;2022-08-30T17:06:03;20.23;66.12
70928;SHT31;58587;53.034;18.576;2022-08-30T17:08:29;20.16;66.42
70928;SHT31;58587;53.034;18.576;2022-08-30T17:10:55;20.16;66.16
70928;SHT31;58587;53.034;18.576;2022-08-30T17:13:20;20.03;66.70
70928;SHT31;58587;53.034;18.576;2022-08-30T17:15:46;19.97;67.25
70928;SHT31;58587;53.034;18.576;2022-08-30T17:18:13;20.00;67.02
70928;SHT31;58587;53.034;18.576;2022-08-30T17:20:39;19.94;67.29
70928;SHT31;58587;53.034;18.576;2022-08-30T17:23:05;19.86;67.72
70928;SHT31;58587;53.034;18.576;2022-08-30T17:25:31;19.74;67.65
70928;SHT31;58587;53.034;18.576;2022-08-30T17:27:56;19.67;67.63
70928;SHT31;58587;53.034;18.576;2022-08-30T17:30:22;19.58;68.17
70928;SHT31;58587;53.034;18.576;2022-08-30T17:32:47;19.48;68.30
70928;SHT31;58587;53.034;18.576;2022-08-30T17:35:13;19.42;68.08
70928;SHT31;58587;53.034;18.576;2022-08-30T17:37:39;19.36;67.14
70928;SHT31;58587;53.034;18.576;2022-08-30T17:40:05;19.36;67.63
70928;SHT31;58587;53.034;18.576;2022-08-30T17:42:31;19.33;68.10
70928;SHT31;58587;53.034;18.576;2022-08-30T17:44:57;19.26;67.90
70928;SHT31;58587;53.034;18.576;2022-08-30T17:47:22;19.23;68.68
70928;SHT31;58587;53.034;18.576;2022-08-30T17:49:48;19.19;67.88
70928;SHT31;58587;53.034;18.576;2022-08-30T17:52:13;19.16;69.23
70928;SHT31;58587;53.034;18.576;2022-08-30T17:54:39;19.11;68.17
70928;SHT31;58587;53.034;18.576;2022-08-30T17:57:05;19.04;68.48
70928;SHT31;58587;53.034;18.576;2022-08-30T17:59:36;18.98;69.40
70928;SHT31;58587;53.034;18.576;2022-08-30T18:02:02;19.00;69.72
70928;SHT31;58587;53.034;18.576;2022-08-30T18:04:29;18.94;69.47
70928;SHT31;58587;53.034;18.576;2022-08-30T18:06:55;18.92;70.19
70928;SHT31;58587;53.034;18.576;2022-08-30T18:09:21;18.91;69.67
70928;SHT31;58587;53.034;18.576;2022-08-30T18:11:47;18.90;70.10
70928;SHT31;58587;53.034;18.576;2022-08-30T18:14:13;18.83;70.86
70928;SHT31;58587;53.034;18.576;2022-08-30T18:16:40;18.81;70.45
70928;SHT31;58587;53.034;18.576;2022-08-30T18:19:06;18.75;70.80
70928;SHT31;58587;53.034;18.576;2022-08-30T18:21:32;18.70;71.93
70928;SHT31;58587;53.034;18.576;2022-08-30T18:23:57;18.61;71.49
70928;SHT31;58587;53.034;18.576;2022-08-30T18:26:23;18.56;72.25
70928;SHT31;58587;53.034;18.576;2022-08-30T18:28:49;18.53;72.12
70928;SHT31;58587;53.034;18.576;2022-08-30T18:31:15;18.48;72.41
70928;SHT31;58587;53.034;18.576;2022-08-30T18:33:40;18.41;73.88
70928;SHT31;58587;53.034;18.576;2022-08-30T18:36:06;18.37;73.21
70928;SHT31;58587;53.034;18.576;2022-08-30T18:38:32;18.34;73.53
70928;SHT31;58587;53.034;18.576;2022-08-30T18:41:00;18.29;74.19
70928;SHT31;58587;53.034;18.576;2022-08-30T18:43:26;18.23;74.42
70928;SHT31;58587;53.034;18.576;2022-08-30T18:45:52;18.23;74.09
70928;SHT31;58587;53.034;18.576;2022-08-30T18:48:18;18.20;74.25
70928;SHT31;58587;53.034;18.576;2022-08-30T18:50:44;18.14;74.54
70928;SHT31;58587;53.034;18.576;2022-08-30T18:53:11;18.10;74.85
70928;SHT31;58587;53.034;18.576;2022-08-30T18:55:36;18.07;74.75
70928;SHT31;58587;53.034;18.576;2022-08-30T18:58:02;18.03;75.15
70928;SHT31;58587;53.034;18.576;2022-08-30T19:00:29;17.99;75.39
70928;SHT31;58587;53.034;18.576;2022-08-30T19:02:55;17.90;76.02
70928;SHT31;58587;53.034;18.576;2022-08-30T19:05:21;17.81;75.41
70928;SHT31;58587;53.034;18.576;2022-08-30T19:07:49;17.81;76.65
70928;SHT31;58587;53.034;18.576;2022-08-30T19:10:17;17.76;76.38
70928;SHT31;58587;53.034;18.576;2022-08-30T19:12:44;17.72;76.45
70928;SHT31;58587;53.034;18.576;2022-08-30T19:15:09;17.65;76.70
70928;SHT31;58587;53.034;18.576;2022-08-30T19:17:36;17.59;77.17
70928;SHT31;58587;53.034;18.576;2022-08-30T19:20:06;17.45;77.44
70928;SHT31;58587;53.034;18.576;2022-08-30T19:22:33;17.39;77.95
70928;SHT31;58587;53.034;18.576;2022-08-30T19:24:58;17.38;78.38
70928;SHT31;58587;53.034;18.576;2022-08-30T19:27:24;17.34;78.06
70928;SHT31;58587;53.034;18.576;2022-08-30T19:29:49;17.31;78.30
70928;SHT31;58587;53.034;18.576;2022-08-30T19:32:15;17.24;78.64
70928;SHT31;58587;53.034;18.576;2022-08-30T19:34:40;17.18;78.74
70928;SHT31;58587;53.034;18.576;2022-08-30T19:37:06;17.12;78.80
70928;SHT31;58587;53.034;18.576;2022-08-30T19:39:32;17.10;79.24
70928;SHT31;58587;53.034;18.576;2022-08-30T19:41:57;17.04;79.39
70928;SHT31;58587;53.034;18.576;2022-08-30T19:44:23;16.99;79.60
70928;SHT31;58587;53.034;18.576;2022-08-30T19:46:52;16.91;79.17
70928;SHT31;58587;53.034;18.576;2022-08-30T19:49:17;16.90;79.60
70928;SHT31;58587;53.034;18.576;2022-08-30T19:51:43;16.79;80.01
70928;SHT31;58587;53.034;18.576;2022-08-30T19:54:08;16.73;80.07
70928;SHT31;58587;53.034;18.576;2022-08-30T19:56:34;16.70;80.01
70928;SHT31;58587;53.034;18.576;2022-08-30T19:59:00;16.63;80.40
70928;SHT31;58587;53.034;18.576;2022-08-30T20:01:25;16.59;80.26
70928;SHT31;58587;53.034;18.576;2022-08-30T20:03:51;16.52;80.59
70928;SHT31;58587;53.034;18.576;2022-08-30T20:06:16;16.50;80.63
70928;SHT31;58587;53.034;18.576;2022-08-30T20:08:43;16.46;80.64
70928;SHT31;58587;53.034;18.576;2022-08-30T20:11:14;16.39;81.00
70928;SHT31;58587;53.034;18.576;2022-08-30T20:13:40;16.34;81.17
70928;SHT31;58587;53.034;18.576;2022-08-30T20:16:05;16.30;81.17
70928;SHT31;58587;53.034;18.576;2022-08-30T20:18:31;16.25;81.38
70928;SHT31;58587;53.034;18.576;2022-08-30T20:20:56;16.19;81.82
70928;SHT31;58587;53.034;18.576;2022-08-30T20:23:22;16.10;81.86
70928;SHT31;58587;53.034;18.576;2022-08-30T20:25:52;16.06;81.67
70928;SHT31;58587;53.034;18.576;2022-08-30T20:28:18;15.98;81.87
70928;SHT31;58587;53.034;18.576;2022-08-30T20:30:45;15.95;82.25
70928;SHT31;58587;53.034;18.576;2022-08-30T20:33:10;15.88;82.24
70928;SHT31;58587;53.034;18.576;2022-08-30T20:35:36;15.85;82.29
70928;SHT31;58587;53.034;18.576;2022-08-30T20:38:02;15.82;82.57
70928;SHT31;58587;53.034;18.576;2022-08-30T20:40:32;15.81;82.53
70928;SHT31;58587;53.034;18.576;2022-08-30T20:42:59;15.79;82.45
70928;SHT31;58587;53.034;18.576;2022-08-30T20:45:25;15.77;82.88
70928;SHT31;58587;53.034;18.576;2022-08-30T20:47:51;15.74;82.75
70928;SHT31;58587;53.034;18.576;2022-08-30T20:50:16;15.67;82.94
70928;SHT31;58587;53.034;18.576;2022-08-30T20:52:42;15.65;82.73
70928;SHT31;58587;53.034;18.576;2022-08-30T20:55:08;15.62;83.04
70928;SHT31;58587;53.034;18.576;2022-08-30T20:57:34;15.58;83.23
70928;SHT31;58587;53.034;18.576;2022-08-30T20:59:59;15.55;83.03
70928;SHT31;58587;53.034;18.576;2022-08-30T21:02:25;15.51;83.21
70928;SHT31;58587;53.034;18.576;2022-08-30T21:04:50;15.48;83.14
70928;SHT31;58587;53.034;18.576;2022-08-30T21:07:16;15.44;83.05
70928;SHT31;58587;53.034;18.576;2022-08-30T21:09:41;15.38;83.53
70928;SHT31;58587;53.034;18.576;2022-08-30T21:12:08;15.37;83.63
70928;SHT31;58587;53.034;18.576;2022-08-30T21:14:33;15.35;83.99
70928;SHT31;58587;53.034;18.576;2022-08-30T21:16:59;15.33;83.96
70928;SHT31;58587;53.034;18.576;2022-08-30T21:19:25;15.30;83.86
70928;SHT31;58587;53.034;18.576;2022-08-30T21:21:50;15.27;83.85
70928;SHT31;58587;53.034;18.576;2022-08-30T21:24:17;15.27;83.69
70928;SHT31;58587;53.034;18.576;2022-08-30T21:26:42;15.22;83.77
70928;SHT31;58587;53.034;18.576;2022-08-30T21:29:08;15.16;84.07
70928;SHT31;58587;53.034;18.576;2022-08-30T21:31:34;15.13;84.13
70928;SHT31;58587;53.034;18.576;2022-08-30T21:34:03;15.08;84.12
70928;SHT31;58587;53.034;18.576;2022-08-30T21:36:28;15.02;84.03
70928;SHT31;58587;53.034;18.576;2022-08-30T21:39:24;14.97;84.58
70928;SHT31;58587;53.034;18.576;2022-08-30T21:41:52;14.94;84.54
70928;SHT31;58587;53.034;18.576;2022-08-30T21:44:21;14.94;84.50
